US-0235 weather

Farmer's Co-Op Airport
Harlingen, Texas, United States

Public forecast

Using degrees Fahrenheit for public forecast. Weather courtesy of forecast.io.

Closest aviation weather report (METAR) to Farmer's Co-Op Airport

Closest report is Valley International Airport, 6.0 nm (11.1 km) NNE. Retrieved 2019/10/17 15:52 UTC (54 minutes ago):

KHRL 171552Z 32017KT 10SM OVC015 21/13 A2998 RMK AO2 SLP151 T02110128

Closest aviation forecast (TAF) to Farmer's Co-Op Airport

Closest forecast is Valley International Airport, 6.0 nm (11.1 km) NNE. Retrieved 2019/10/17 12:22 UTC (4 hours ago):

TAF KHRL 171120Z 1712/1812 34011KT P6SM OVC020 FM171600 35011KT P6SM VCSH OVC040 FM180000 36009KT P6SM OVC035